createdAt,value
2018-12-31T00:00:09.397Z,21.93
2018-12-31T00:02:39.826Z,26.17
2018-12-31T00:05:09.449Z,22.10
2018-12-31T00:07:39.126Z,20.77
2018-12-31T00:10:28.211Z,21.07
2018-12-31T00:12:57.855Z,24.15
2018-12-31T00:15:27.473Z,22.70
2018-12-31T00:17:57.125Z,22.00
2018-12-31T00:20:27.221Z,20.50
2018-12-31T00:22:56.874Z,24.27
2018-12-31T00:25:26.502Z,22.58
2018-12-31T00:27:56.152Z,21.45
2018-12-31T00:30:25.917Z,21.68
2018-12-31T00:32:55.574Z,24.57
2018-12-31T00:35:25.197Z,18.42
2018-12-31T00:37:54.850Z,22.35
2018-12-31T00:40:24.536Z,19.70
2018-12-31T00:42:59.013Z,19.95
2018-12-31T00:45:25.441Z,22.50
2018-12-31T00:47:55.080Z,22.73
2018-12-31T00:50:24.897Z,19.87
2018-12-31T00:52:54.545Z,23.40
2018-12-31T00:55:24.170Z,20.00
2018-12-31T00:57:53.822Z,19.05
2018-12-31T01:00:23.448Z,18.65
2018-12-31T01:02:53.093Z,23.18
2018-12-31T01:05:22.721Z,17.37
2018-12-31T01:08:00.180Z,17.48
2018-12-31T01:10:29.841Z,19.17
2018-12-31T01:12:59.485Z,20.32
2018-12-31T01:15:29.168Z,18.25
2018-12-31T01:17:58.824Z,18.17
2018-12-31T01:20:28.485Z,22.13
2018-12-31T01:22:58.145Z,19.15
2018-12-31T01:25:27.764Z,20.32
2018-12-31T01:27:57.390Z,19.10
2018-12-31T01:30:27.038Z,23.75
2018-12-31T01:32:56.661Z,20.32
2018-12-31T01:35:26.307Z,20.25
2018-12-31T01:37:55.928Z,21.37
2018-12-31T01:40:25.575Z,20.77
2018-12-31T01:42:55.196Z,20.35
2018-12-31T01:45:24.848Z,20.88
2018-12-31T01:47:54.472Z,21.80
2018-12-31T01:50:24.113Z,29.05
2018-12-31T01:52:53.741Z,38.02
2018-12-31T01:55:23.384Z,28.57
2018-12-31T01:57:53.010Z,25.20
2018-12-31T02:00:22.657Z,34.00
2018-12-31T02:02:52.276Z,29.82
2018-12-31T02:05:21.920Z,28.65
2018-12-31T02:07:51.541Z,24.80
2018-12-31T02:10:21.271Z,27.50
2018-12-31T02:12:50.894Z,28.17
2018-12-31T02:15:20.549Z,23.62
2018-12-31T02:17:50.164Z,22.37
2018-12-31T02:20:19.813Z,24.23
2018-12-31T02:22:49.447Z,25.20
2018-12-31T02:25:19.102Z,22.17
2018-12-31T02:27:48.712Z,29.42
2018-12-31T02:30:18.386Z,24.95
2018-12-31T02:32:47.987Z,23.70
2018-12-31T02:35:17.639Z,23.73
2018-12-31T02:37:47.256Z,28.20
2018-12-31T02:40:16.978Z,33.02
2018-12-31T02:42:46.598Z,22.02
2018-12-31T02:45:16.251Z,24.20
2018-12-31T02:47:45.870Z,24.27
2018-12-31T02:50:15.672Z,21.40
2018-12-31T02:52:45.293Z,25.97
2018-12-31T02:55:14.936Z,21.68
2018-12-31T02:57:44.564Z,24.67
2018-12-31T03:00:14.481Z,24.23
2018-12-31T03:02:44.103Z,24.70
2018-12-31T03:05:13.756Z,25.48
2018-12-31T03:07:43.376Z,24.65
2018-12-31T03:10:13.181Z,26.68
2018-12-31T03:12:42.829Z,22.10
2018-12-31T03:15:12.450Z,22.60
2018-12-31T03:17:42.241Z,23.70
2018-12-31T03:20:11.909Z,26.97
2018-12-31T03:22:41.553Z,27.95
2018-12-31T03:25:11.172Z,26.17
2018-12-31T03:27:40.822Z,27.55
2018-12-31T03:30:10.610Z,28.52
2018-12-31T03:32:40.291Z,28.65
2018-12-31T03:35:09.881Z,26.25
2018-12-31T03:37:39.521Z,22.42
2018-12-31T03:40:09.184Z,27.27
2018-12-31T03:42:38.836Z,26.25
2018-12-31T03:45:08.529Z,25.65
2018-12-31T03:47:38.180Z,24.05
2018-12-31T03:50:08.280Z,24.72
2018-12-31T03:52:37.936Z,26.25
2018-12-31T03:55:07.691Z,25.05
2018-12-31T03:57:37.279Z,28.30
2018-12-31T04:00:07.201Z,25.25
2018-12-31T04:02:36.843Z,23.83
2018-12-31T04:05:06.604Z,25.88
2018-12-31T04:07:36.248Z,25.00
2018-12-31T04:10:06.240Z,26.90
2018-12-31T04:12:35.882Z,27.67
2018-12-31T04:15:05.637Z,25.45
2018-12-31T04:17:35.279Z,23.50
2018-12-31T04:20:05.423Z,21.80
2018-12-31T04:22:35.070Z,23.40
2018-12-31T04:25:04.850Z,25.20
2018-12-31T04:27:34.501Z,28.40
2018-12-31T04:30:04.929Z,25.90
2018-12-31T04:32:34.578Z,25.80
2018-12-31T04:35:04.557Z,28.42
2018-12-31T04:37:34.175Z,22.07
2018-12-31T04:40:03.867Z,29.95
2018-12-31T04:42:33.522Z,25.55
2018-12-31T04:45:03.156Z,22.80
2018-12-31T04:47:32.796Z,22.40
2018-12-31T04:50:02.571Z,23.52
2018-12-31T04:52:32.219Z,23.65
2018-12-31T04:55:01.843Z,27.07
2018-12-31T04:57:31.488Z,21.75
2018-12-31T05:00:01.493Z,21.02
2018-12-31T05:02:31.137Z,19.95
2018-12-31T05:05:00.756Z,22.42
2018-12-31T05:07:30.400Z,19.73
2018-12-31T05:10:00.227Z,21.15
2018-12-31T05:12:29.927Z,18.98
2018-12-31T05:14:59.544Z,19.67
2018-12-31T05:17:29.193Z,21.12
2018-12-31T05:19:59.025Z,19.75
2018-12-31T05:22:28.684Z,20.37
2018-12-31T05:24:58.305Z,19.77
2018-12-31T05:27:27.924Z,21.68
2018-12-31T05:29:57.679Z,20.48
2018-12-31T05:32:27.329Z,19.48
2018-12-31T05:34:56.972Z,18.92
2018-12-31T05:37:26.596Z,18.40
2018-12-31T05:39:56.296Z,21.87
2018-12-31T05:42:25.862Z,20.48
2018-12-31T05:44:55.501Z,20.77
2018-12-31T05:47:25.116Z,21.00
2018-12-31T05:49:54.854Z,20.75
2018-12-31T05:52:24.521Z,19.90
2018-12-31T05:54:54.120Z,19.15
2018-12-31T05:57:23.740Z,18.57
2018-12-31T05:59:53.480Z,18.67
2018-12-31T06:02:23.109Z,20.60
2018-12-31T06:04:52.796Z,19.25
2018-12-31T06:07:22.412Z,19.50
2018-12-31T06:09:52.060Z,20.60
2018-12-31T06:12:21.684Z,21.85
2018-12-31T06:14:51.338Z,20.48
2018-12-31T06:17:20.965Z,23.30
2018-12-31T06:19:50.745Z,19.62
2018-12-31T06:22:20.375Z,19.73
2018-12-31T06:24:50.009Z,18.17
2018-12-31T06:27:19.629Z,19.10
2018-12-31T06:29:49.277Z,21.10
2018-12-31T06:32:18.896Z,20.77
2018-12-31T06:34:48.543Z,23.20
2018-12-31T06:37:18.160Z,20.15
2018-12-31T06:39:47.917Z,21.77
2018-12-31T06:42:17.541Z,20.17
2018-12-31T06:44:47.181Z,23.05
2018-12-31T06:47:16.804Z,21.45
2018-12-31T06:49:46.552Z,21.23
2018-12-31T06:52:16.236Z,20.90
2018-12-31T06:54:45.884Z,21.93
2018-12-31T06:57:15.505Z,23.27
2018-12-31T06:59:45.192Z,21.85
2018-12-31T07:02:14.821Z,23.73
2018-12-31T07:04:44.465Z,23.67
2018-12-31T07:07:14.084Z,21.93
2018-12-31T07:09:43.729Z,23.50
2018-12-31T07:12:13.348Z,24.00
2018-12-31T07:14:42.999Z,23.45
2018-12-31T07:17:12.621Z,23.70
2018-12-31T07:19:42.265Z,23.10
2018-12-31T07:22:11.888Z,22.75
2018-12-31T07:24:41.537Z,24.63
2018-12-31T07:27:11.159Z,24.37
2018-12-31T07:29:40.808Z,25.17
2018-12-31T07:32:10.428Z,25.05
2018-12-31T07:34:40.073Z,24.32
2018-12-31T07:37:09.722Z,24.18
2018-12-31T07:39:39.336Z,18.98
2018-12-31T07:42:08.981Z,20.82
2018-12-31T07:44:38.702Z,20.10
2018-12-31T07:47:08.352Z,20.35
2018-12-31T07:49:37.973Z,22.25
2018-12-31T07:52:07.613Z,21.23
2018-12-31T07:54:37.236Z,21.82
2018-12-31T07:57:06.884Z,22.22
2018-12-31T07:59:36.505Z,23.77
2018-12-31T08:02:06.158Z,23.77
2018-12-31T08:04:35.790Z,27.95
2018-12-31T08:07:05.434Z,24.30
2018-12-31T08:09:35.057Z,25.62
2018-12-31T08:12:04.704Z,25.80
2018-12-31T08:14:34.326Z,28.40
2018-12-31T08:17:03.968Z,24.87
2018-12-31T08:19:33.641Z,24.82
2018-12-31T08:22:03.290Z,21.97
2018-12-31T08:24:32.924Z,22.35
2018-12-31T08:27:02.566Z,21.45
2018-12-31T08:29:32.184Z,22.35
2018-12-31T08:32:01.829Z,22.07
2018-12-31T08:34:31.449Z,22.70
2018-12-31T08:37:01.094Z,22.87
2018-12-31T08:39:30.815Z,23.60
2018-12-31T08:42:00.468Z,25.70
2018-12-31T08:44:30.084Z,23.10
2018-12-31T08:46:59.726Z,23.45
2018-12-31T08:49:29.355Z,23.15
2018-12-31T08:51:58.995Z,23.05
2018-12-31T08:54:28.688Z,24.80
2018-12-31T08:56:58.329Z,22.35
2018-12-31T08:59:28.000Z,23.22
2018-12-31T09:01:57.650Z,25.12
2018-12-31T09:04:27.272Z,22.95
2018-12-31T09:06:56.917Z,25.00
2018-12-31T09:09:26.548Z,23.65
2018-12-31T09:11:56.197Z,23.85
2018-12-31T09:14:25.815Z,23.62
2018-12-31T09:16:55.456Z,25.55
2018-12-31T09:19:25.239Z,26.35
2018-12-31T09:21:54.881Z,22.60
2018-12-31T09:24:24.500Z,24.77
2018-12-31T09:26:54.159Z,24.90
2018-12-31T09:29:23.779Z,28.87
2018-12-31T09:31:53.420Z,25.43
2018-12-31T09:34:23.042Z,25.27
2018-12-31T09:36:52.686Z,20.82
2018-12-31T09:39:22.416Z,22.52
2018-12-31T09:41:53.433Z,24.90
2018-12-31T09:44:23.328Z,19.67
2018-12-31T09:46:53.604Z,22.20
2018-12-31T09:49:23.298Z,20.60
2018-12-31T09:51:52.951Z,21.27
2018-12-31T09:54:22.587Z,19.50
2018-12-31T09:56:52.296Z,19.73
2018-12-31T09:59:21.936Z,20.52
2018-12-31T10:01:51.577Z,22.25
2018-12-31T10:04:21.626Z,21.45
2018-12-31T10:06:52.563Z,22.67
2018-12-31T10:09:22.300Z,23.67
2018-12-31T10:11:52.009Z,19.95
2018-12-31T10:14:21.627Z,19.70
2018-12-31T10:16:51.273Z,21.65
2018-12-31T10:19:20.950Z,19.48
2018-12-31T10:21:50.591Z,19.75
2018-12-31T10:24:20.204Z,18.82
2018-12-31T10:26:49.844Z,21.60
2018-12-31T10:29:20.791Z,19.00
2018-12-31T10:31:50.572Z,20.27
2018-12-31T10:34:20.194Z,18.90
2018-12-31T10:36:49.812Z,18.37
2018-12-31T10:39:19.586Z,17.92
2018-12-31T10:41:49.212Z,18.23
2018-12-31T10:44:18.855Z,17.95
2018-12-31T10:46:48.482Z,17.62
2018-12-31T10:49:18.133Z,17.82
2018-12-31T10:51:47.757Z,18.00
2018-12-31T10:54:17.395Z,16.48
2018-12-31T10:56:47.018Z,18.25
2018-12-31T10:59:16.681Z,17.52
2018-12-31T11:01:46.309Z,17.37
2018-12-31T11:04:15.948Z,14.47
2018-12-31T11:06:45.568Z,16.40
2018-12-31T11:09:15.290Z,15.23
2018-12-31T11:11:44.904Z,14.63
2018-12-31T11:14:15.320Z,15.32
2018-12-31T11:16:45.073Z,14.47
2018-12-31T11:19:14.936Z,14.73
2018-12-31T11:21:45.435Z,14.87
2018-12-31T11:24:15.084Z,14.00
2018-12-31T11:26:44.701Z,13.98
2018-12-31T11:29:14.401Z,14.78
2018-12-31T11:31:44.025Z,15.15
2018-12-31T11:34:13.667Z,13.98
2018-12-31T11:36:43.297Z,112.15
2018-12-31T11:39:13.139Z,37.55
2018-12-31T11:41:42.829Z,20.65
2018-12-31T11:44:12.473Z,17.77
2018-12-31T11:46:42.095Z,14.68
2018-12-31T11:49:11.768Z,14.93
2018-12-31T11:51:41.387Z,16.55
2018-12-31T11:54:11.029Z,16.00
2018-12-31T11:56:40.647Z,16.65
2018-12-31T11:59:10.504Z,14.53
2018-12-31T12:01:40.127Z,15.50
2018-12-31T12:04:09.772Z,16.50
2018-12-31T12:06:39.549Z,17.00
2018-12-31T12:09:09.648Z,15.95
2018-12-31T12:11:39.263Z,15.43
2018-12-31T12:14:08.912Z,15.25
2018-12-31T12:16:38.605Z,14.53
2018-12-31T12:19:08.698Z,14.35
2018-12-31T12:21:38.321Z,61.58
2018-12-31T12:24:07.974Z,267.15
2018-12-31T12:26:37.592Z,18.95
2018-12-31T12:29:07.239Z,15.63
2018-12-31T12:31:36.862Z,13.25
2018-12-31T12:34:06.500Z,12.65
2018-12-31T12:36:36.142Z,12.95
2018-12-31T12:39:06.614Z,13.80
2018-12-31T12:41:36.233Z,13.03
2018-12-31T12:44:05.881Z,13.15
2018-12-31T12:46:35.495Z,15.93
2018-12-31T12:49:05.147Z,18.12
2018-12-31T12:51:34.760Z,14.73
2018-12-31T12:54:04.713Z,14.00
2018-12-31T12:56:34.338Z,14.53
2018-12-31T12:59:04.137Z,15.78
2018-12-31T13:01:33.761Z,17.05
2018-12-31T13:04:03.428Z,15.50
2018-12-31T13:06:33.346Z,15.08
2018-12-31T13:09:04.309Z,16.20
2018-12-31T13:11:33.928Z,16.17
2018-12-31T13:14:03.573Z,14.30
2018-12-31T13:16:33.325Z,14.47
2018-12-31T13:19:03.357Z,12.95
2018-12-31T13:21:32.996Z,13.50
2018-12-31T13:24:02.712Z,13.40
2018-12-31T13:26:32.402Z,13.62
2018-12-31T13:29:02.353Z,13.15
2018-12-31T13:31:31.997Z,13.68
2018-12-31T13:34:01.615Z,14.03
2018-12-31T13:36:31.260Z,14.05
2018-12-31T13:39:01.027Z,14.05
2018-12-31T13:41:30.972Z,13.93
2018-12-31T13:44:00.597Z,13.75
2018-12-31T13:46:30.247Z,12.30
2018-12-31T13:48:59.869Z,12.20
2018-12-31T13:51:29.515Z,12.20
2018-12-31T13:53:59.134Z,12.07
2018-12-31T13:56:28.781Z,12.10
2018-12-31T13:58:58.516Z,11.83
2018-12-31T14:01:28.154Z,13.45
2018-12-31T14:03:57.773Z,13.60
2018-12-31T14:06:27.420Z,14.05
2018-12-31T14:08:57.141Z,16.48
2018-12-31T14:11:26.784Z,14.85
2018-12-31T14:13:56.400Z,13.53
2018-12-31T14:16:26.248Z,13.03
2018-12-31T14:18:55.901Z,17.20
2018-12-31T14:21:25.581Z,21.17
2018-12-31T14:23:55.173Z,17.23
2018-12-31T14:26:24.821Z,14.13
2018-12-31T14:28:54.461Z,12.73
2018-12-31T14:31:24.088Z,12.00
2018-12-31T14:33:53.708Z,13.60
2018-12-31T14:36:23.355Z,14.50
2018-12-31T14:38:53.057Z,13.60
2018-12-31T14:41:22.704Z,13.32
2018-12-31T14:43:52.332Z,15.15
2018-12-31T14:46:23.016Z,14.20
2018-12-31T14:48:52.721Z,13.83
2018-12-31T14:51:22.666Z,13.62
2018-12-31T14:53:52.289Z,13.75
2018-12-31T14:56:21.940Z,12.68
2018-12-31T14:58:51.560Z,13.48
2018-12-31T15:01:21.197Z,13.85
2018-12-31T15:03:51.117Z,13.58
2018-12-31T15:06:20.735Z,15.10
2018-12-31T15:08:50.620Z,15.50
2018-12-31T15:11:20.242Z,14.70
2018-12-31T15:13:49.893Z,13.75
2018-12-31T15:16:19.516Z,15.25
2018-12-31T15:18:49.333Z,15.15
2018-12-31T15:21:18.948Z,13.68
2018-12-31T15:23:48.589Z,15.23
2018-12-31T15:26:18.208Z,15.60
2018-12-31T15:28:47.988Z,15.55
2018-12-31T15:31:17.615Z,14.18
2018-12-31T15:33:47.253Z,14.47
2018-12-31T15:36:19.240Z,13.70
2018-12-31T15:38:49.352Z,13.38
2018-12-31T15:41:18.972Z,15.13
2018-12-31T15:43:48.619Z,13.85
2018-12-31T15:46:20.322Z,14.40
2018-12-31T15:48:49.500Z,14.90
2018-12-31T15:51:19.127Z,14.40
2018-12-31T15:53:48.768Z,15.43
2018-12-31T15:56:18.393Z,15.03
2018-12-31T15:58:48.104Z,15.15
2018-12-31T16:01:17.728Z,14.60
2018-12-31T16:03:47.368Z,14.68
2018-12-31T16:06:16.992Z,14.53
2018-12-31T16:08:46.646Z,14.60
2018-12-31T16:11:16.267Z,14.70
2018-12-31T16:13:45.907Z,14.85
2018-12-31T16:16:15.528Z,15.28
2018-12-31T16:18:45.189Z,14.73
2018-12-31T16:21:14.812Z,14.23
2018-12-31T16:23:44.459Z,14.07
2018-12-31T16:26:14.080Z,14.15
2018-12-31T16:28:43.735Z,15.08
2018-12-31T16:31:13.353Z,15.53
2018-12-31T16:33:43.004Z,19.10
2018-12-31T16:36:12.736Z,20.23
2018-12-31T16:38:42.685Z,20.32
2018-12-31T16:41:12.296Z,21.15
2018-12-31T16:43:41.987Z,18.85
2018-12-31T16:46:13.200Z,18.98
2018-12-31T16:48:42.924Z,17.70
2018-12-31T16:51:12.744Z,16.67
2018-12-31T16:53:42.400Z,17.35
2018-12-31T16:56:12.020Z,16.30
2018-12-31T16:58:41.761Z,16.32
2018-12-31T17:01:11.376Z,16.67
2018-12-31T17:03:41.016Z,16.82
2018-12-31T17:06:10.644Z,15.25
2018-12-31T17:08:40.397Z,15.83
2018-12-31T17:11:10.020Z,14.83
2018-12-31T17:13:39.664Z,14.45
2018-12-31T17:16:09.290Z,17.57
2018-12-31T17:18:38.941Z,19.27
2018-12-31T17:21:08.560Z,17.10
2018-12-31T17:23:38.209Z,15.75
2018-12-31T17:26:07.834Z,16.17
2018-12-31T17:28:37.569Z,16.27
2018-12-31T17:31:07.188Z,15.85
2018-12-31T17:33:36.841Z,15.70
2018-12-31T17:36:06.454Z,15.83
2018-12-31T17:38:36.217Z,16.00
2018-12-31T17:41:05.831Z,15.93
2018-12-31T17:43:35.484Z,13.15
2018-12-31T17:46:05.136Z,13.10
2018-12-31T17:48:34.908Z,13.43
2018-12-31T17:51:04.554Z,12.78
2018-12-31T17:53:34.172Z,12.63
2018-12-31T17:56:03.811Z,14.35
2018-12-31T17:58:33.552Z,14.10
2018-12-31T18:01:03.197Z,15.53
2018-12-31T18:03:33.249Z,16.62
2018-12-31T18:06:02.888Z,16.50
2018-12-31T18:08:32.512Z,15.80
2018-12-31T18:11:02.160Z,16.15
2018-12-31T18:13:31.781Z,20.60
2018-12-31T18:16:01.832Z,24.30
2018-12-31T18:18:31.540Z,22.32
2018-12-31T18:21:01.185Z,19.45
2018-12-31T18:23:30.806Z,19.17
2018-12-31T18:26:00.461Z,19.62
2018-12-31T18:28:30.174Z,20.30
2018-12-31T18:30:59.816Z,21.65
2018-12-31T18:33:29.903Z,25.80
2018-12-31T18:36:00.001Z,25.35
2018-12-31T18:38:30.123Z,22.50
2018-12-31T18:41:00.136Z,22.67
2018-12-31T18:43:30.177Z,21.45
2018-12-31T18:46:00.172Z,21.25
2018-12-31T18:48:30.286Z,22.20
2018-12-31T18:51:00.305Z,23.65
2018-12-31T18:53:29.991Z,21.85
2018-12-31T18:55:59.636Z,23.98
2018-12-31T18:58:29.256Z,25.55
2018-12-31T19:00:58.904Z,25.48
2018-12-31T19:03:28.924Z,26.20
2018-12-31T19:05:58.568Z,23.73
2018-12-31T19:08:28.184Z,24.52
2018-12-31T19:10:57.828Z,22.75
2018-12-31T19:13:27.452Z,21.82
2018-12-31T19:15:57.496Z,17.62
2018-12-31T19:18:27.122Z,18.15
2018-12-31T19:20:56.766Z,17.52
2018-12-31T19:23:26.390Z,15.83
2018-12-31T19:25:56.042Z,16.17
2018-12-31T19:28:25.968Z,17.15
2018-12-31T19:30:55.612Z,17.45
2018-12-31T19:33:25.234Z,17.25
2018-12-31T19:35:54.876Z,19.73
2018-12-31T19:38:24.502Z,17.98
2018-12-31T19:40:54.249Z,17.55
2018-12-31T19:43:23.868Z,17.85
2018-12-31T19:45:53.513Z,20.72
2018-12-31T19:48:23.239Z,20.00
2018-12-31T19:50:52.893Z,19.77
2018-12-31T19:53:22.508Z,18.73
2018-12-31T19:55:52.229Z,18.52
2018-12-31T19:58:21.845Z,18.10
2018-12-31T20:00:51.493Z,14.87
2018-12-31T20:03:21.113Z,16.42
2018-12-31T20:05:50.756Z,15.25
2018-12-31T20:08:20.517Z,15.72
2018-12-31T20:10:50.158Z,15.43
2018-12-31T20:13:19.777Z,16.05
2018-12-31T20:15:49.420Z,16.15
2018-12-31T20:18:19.043Z,17.05
2018-12-31T20:20:48.787Z,15.75
2018-12-31T20:23:18.409Z,19.05
2018-12-31T20:25:48.034Z,16.45
2018-12-31T20:28:17.818Z,17.87
2018-12-31T20:30:47.436Z,17.82
2018-12-31T20:33:17.080Z,18.10
2018-12-31T20:35:46.700Z,18.20
2018-12-31T20:38:16.443Z,18.05
2018-12-31T20:40:46.084Z,18.45
2018-12-31T20:43:16.134Z,17.57
2018-12-31T20:45:45.765Z,17.23
2018-12-31T20:48:15.418Z,39.65
2018-12-31T20:50:45.032Z,39.20
2018-12-31T20:53:14.673Z,60.45
2018-12-31T20:55:44.592Z,29.75
2018-12-31T20:58:14.232Z,21.02
2018-12-31T21:00:43.849Z,20.23
2018-12-31T21:03:13.574Z,22.87
2018-12-31T21:05:43.319Z,19.50
2018-12-31T21:08:13.376Z,19.02
2018-12-31T21:10:42.996Z,17.80
2018-12-31T21:13:12.640Z,23.55
2018-12-31T21:15:42.256Z,28.12
2018-12-31T21:18:11.905Z,22.93
2018-12-31T21:20:41.932Z,24.60
2018-12-31T21:23:11.576Z,24.85
2018-12-31T21:25:41.312Z,24.15
2018-12-31T21:28:11.060Z,21.70
2018-12-31T21:30:40.676Z,19.15
2018-12-31T21:33:10.724Z,16.80
2018-12-31T21:35:40.344Z,17.95
2018-12-31T21:38:09.992Z,18.17
2018-12-31T21:40:39.607Z,18.35
2018-12-31T21:43:09.321Z,17.67
2018-12-31T21:45:39.235Z,21.10
2018-12-31T21:48:08.877Z,22.70
2018-12-31T21:50:38.491Z,22.62
2018-12-31T21:53:08.571Z,20.17
2018-12-31T21:55:38.200Z,21.25
2018-12-31T21:58:08.240Z,20.82
2018-12-31T22:00:37.873Z,29.65
2018-12-31T22:03:07.516Z,23.98
2018-12-31T22:05:37.140Z,21.42
2018-12-31T22:08:06.780Z,19.98
2018-12-31T22:10:36.609Z,20.62
2018-12-31T22:13:06.253Z,20.60
2018-12-31T22:15:35.878Z,22.30
2018-12-31T22:18:05.531Z,21.37
2018-12-31T22:20:35.147Z,19.52
2018-12-31T22:23:04.903Z,22.48
2018-12-31T22:25:34.516Z,20.52
2018-12-31T22:28:04.160Z,27.93
2018-12-31T22:30:33.790Z,22.00
2018-12-31T22:33:03.434Z,20.65
2018-12-31T22:35:33.357Z,21.97
2018-12-31T22:38:03.140Z,21.23
2018-12-31T22:40:32.768Z,19.55
2018-12-31T22:43:02.416Z,18.32
2018-12-31T22:45:32.036Z,18.70
2018-12-31T22:48:01.676Z,18.20
2018-12-31T22:50:31.299Z,20.43
2018-12-31T22:53:00.946Z,17.75
2018-12-31T22:55:30.588Z,18.15
2018-12-31T22:58:00.215Z,18.95
2018-12-31T23:00:29.996Z,22.70
2018-12-31T23:02:59.633Z,296.93
2018-12-31T23:05:29.280Z,359.80
2018-12-31T23:08:00.249Z,383.57
2018-12-31T23:10:29.904Z,319.80
2018-12-31T23:12:59.539Z,855.85
2018-12-31T23:15:29.260Z,747.37
2018-12-31T23:17:59.119Z,768.97
2018-12-31T23:20:28.776Z,679.87
2018-12-31T23:22:58.808Z,662.98
2018-12-31T23:25:28.461Z,539.63
2018-12-31T23:27:58.153Z,402.95
2018-12-31T23:30:27.810Z,254.60
2018-12-31T23:32:57.436Z,143.72
2018-12-31T23:35:27.588Z,53.45
2018-12-31T23:37:57.204Z,51.23
2018-12-31T23:40:26.861Z,91.65
2018-12-31T23:42:56.482Z,65.32
2018-12-31T23:45:26.133Z,51.40
2018-12-31T23:47:56.048Z,56.37
2018-12-31T23:50:25.693Z,31.48
2018-12-31T23:52:55.313Z,36.90
2018-12-31T23:55:24.962Z,44.55
2018-12-31T23:57:54.584Z,37.30
